sim
Sign-in with your pilot id or email,
or register
Callsign
Passwort

Schedule Details

Flight Number: DLH2144
Departure: Munich Airport (EDDM) at 07:10
Arrival: Stuttgart Airport (EDDS) at 07:55
Route: Lufthansa Passenger Schedule. Enter filed route here before submitting Pirep.

Weather Information
Getting current METAR information for EDDM 261720Z 25022KT 9999 -RA SCT023 OVC029 07/04 Q1000 NOSIG
Getting current METAR information for EDDS 261720Z 23009G20KT 160V290 9999 -RA FEW013 SCT030 BKN036 07/05 Q1001 NOSIG

Schedule Frequency

Route Map